sensor_id;sensor_type;location;lat;lon;timestamp;P1;durP1;ratioP1;P2;durP2;ratioP2
20181;SDS011;10250;50.756;6.172;2023-03-04T00:00:09;25.97;;;8.03;;
20181;SDS011;10250;50.756;6.172;2023-03-04T00:02:10;23.47;;;8.27;;
20181;SDS011;10250;50.756;6.172;2023-03-04T00:04:11;28.83;;;8.73;;
20181;SDS011;10250;50.756;6.172;2023-03-04T00:06:12;25.07;;;7.23;;
20181;SDS011;10250;50.756;6.172;2023-03-04T00:08:13;23.10;;;7.57;;
20181;SDS011;10250;50.756;6.172;2023-03-04T00:10:14;25.67;;;8.83;;
20181;SDS011;10250;50.756;6.172;2023-03-04T00:12:15;23.93;;;8.33;;
20181;SDS011;10250;50.756;6.172;2023-03-04T00:14:16;26.70;;;8.90;;
20181;SDS011;10250;50.756;6.172;2023-03-04T00:16:17;26.27;;;7.20;;
20181;SDS011;10250;50.756;6.172;2023-03-04T00:18:18;28.40;;;8.57;;
20181;SDS011;10250;50.756;6.172;2023-03-04T00:20:20;27.33;;;8.07;;
20181;SDS011;10250;50.756;6.172;2023-03-04T00:22:21;22.13;;;7.67;;
20181;SDS011;10250;50.756;6.172;2023-03-04T00:24:22;22.07;;;7.33;;
20181;SDS011;10250;50.756;6.172;2023-03-04T00:26:24;24.60;;;7.20;;
20181;SDS011;10250;50.756;6.172;2023-03-04T00:28:25;25.70;;;7.83;;
20181;SDS011;10250;50.756;6.172;2023-03-04T00:30:26;26.47;;;7.27;;
20181;SDS011;10250;50.756;6.172;2023-03-04T00:32:26;20.97;;;7.73;;
20181;SDS011;10250;50.756;6.172;2023-03-04T00:34:27;23.77;;;7.73;;
20181;SDS011;10250;50.756;6.172;2023-03-04T00:36:28;25.63;;;7.50;;
20181;SDS011;10250;50.756;6.172;2023-03-04T00:38:29;23.23;;;7.33;;
20181;SDS011;10250;50.756;6.172;2023-03-04T00:40:30;24.03;;;7.73;;
20181;SDS011;10250;50.756;6.172;2023-03-04T00:42:31;27.10;;;7.77;;
20181;SDS011;10250;50.756;6.172;2023-03-04T00:44:32;23.47;;;8.23;;
20181;SDS011;10250;50.756;6.172;2023-03-04T00:46:33;23.80;;;6.73;;
20181;SDS011;10250;50.756;6.172;2023-03-04T00:48:34;23.83;;;7.23;;
20181;SDS011;10250;50.756;6.172;2023-03-04T00:50:37;20.70;;;7.37;;
20181;SDS011;10250;50.756;6.172;2023-03-04T00:52:38;24.00;;;6.97;;
20181;SDS011;10250;50.756;6.172;2023-03-04T00:54:39;21.80;;;6.80;;
20181;SDS011;10250;50.756;6.172;2023-03-04T00:56:40;27.83;;;7.97;;
20181;SDS011;10250;50.756;6.172;2023-03-04T00:58:41;21.07;;;6.40;;
20181;SDS011;10250;50.756;6.172;2023-03-04T01:00:42;21.73;;;6.90;;
20181;SDS011;10250;50.756;6.172;2023-03-04T01:02:43;26.23;;;7.70;;
20181;SDS011;10250;50.756;6.172;2023-03-04T01:04:44;28.57;;;8.60;;
20181;SDS011;10250;50.756;6.172;2023-03-04T01:06:45;25.43;;;7.60;;
20181;SDS011;10250;50.756;6.172;2023-03-04T01:08:46;21.43;;;6.90;;
20181;SDS011;10250;50.756;6.172;2023-03-04T01:10:47;23.43;;;6.33;;
20181;SDS011;10250;50.756;6.172;2023-03-04T01:12:48;22.77;;;6.97;;
20181;SDS011;10250;50.756;6.172;2023-03-04T01:14:49;24.90;;;7.53;;
20181;SDS011;10250;50.756;6.172;2023-03-04T01:16:50;26.00;;;8.17;;
20181;SDS011;10250;50.756;6.172;2023-03-04T01:18:51;20.73;;;6.97;;
20181;SDS011;10250;50.756;6.172;2023-03-04T01:20:52;22.00;;;5.77;;
20181;SDS011;10250;50.756;6.172;2023-03-04T01:22:53;26.50;;;8.27;;
20181;SDS011;10250;50.756;6.172;2023-03-04T01:24:54;25.10;;;6.87;;
20181;SDS011;10250;50.756;6.172;2023-03-04T01:26:55;28.47;;;8.00;;
20181;SDS011;10250;50.756;6.172;2023-03-04T01:28:56;24.50;;;7.93;;
20181;SDS011;10250;50.756;6.172;2023-03-04T01:30:57;25.93;;;8.17;;
20181;SDS011;10250;50.756;6.172;2023-03-04T01:32:58;23.97;;;7.33;;
20181;SDS011;10250;50.756;6.172;2023-03-04T01:34:59;23.20;;;7.40;;
20181;SDS011;10250;50.756;6.172;2023-03-04T01:37:00;23.90;;;8.07;;
20181;SDS011;10250;50.756;6.172;2023-03-04T01:39:01;24.67;;;7.43;;
20181;SDS011;10250;50.756;6.172;2023-03-04T01:41:02;22.93;;;7.13;;
20181;SDS011;10250;50.756;6.172;2023-03-04T01:43:03;23.83;;;7.40;;
20181;SDS011;10250;50.756;6.172;2023-03-04T01:45:05;22.70;;;6.77;;
20181;SDS011;10250;50.756;6.172;2023-03-04T01:47:07;22.90;;;7.07;;
20181;SDS011;10250;50.756;6.172;2023-03-04T01:49:08;21.53;;;7.13;;
20181;SDS011;10250;50.756;6.172;2023-03-04T01:51:16;29.73;;;8.23;;
20181;SDS011;10250;50.756;6.172;2023-03-04T01:53:22;26.13;;;8.60;;
20181;SDS011;10250;50.756;6.172;2023-03-04T01:55:23;24.73;;;6.83;;
20181;SDS011;10250;50.756;6.172;2023-03-04T01:57:25;24.27;;;7.53;;
20181;SDS011;10250;50.756;6.172;2023-03-04T01:59:28;27.43;;;7.53;;
20181;SDS011;10250;50.756;6.172;2023-03-04T02:01:30;23.47;;;7.10;;
20181;SDS011;10250;50.756;6.172;2023-03-04T02:03:31;24.87;;;6.90;;
20181;SDS011;10250;50.756;6.172;2023-03-04T02:05:32;24.23;;;7.57;;
20181;SDS011;10250;50.756;6.172;2023-03-04T02:07:35;22.77;;;6.73;;
20181;SDS011;10250;50.756;6.172;2023-03-04T02:09:36;21.67;;;6.67;;
20181;SDS011;10250;50.756;6.172;2023-03-04T02:11:37;21.73;;;6.87;;
20181;SDS011;10250;50.756;6.172;2023-03-04T02:13:38;21.40;;;7.03;;
20181;SDS011;10250;50.756;6.172;2023-03-04T02:15:39;23.43;;;7.20;;
20181;SDS011;10250;50.756;6.172;2023-03-04T02:17:41;21.23;;;6.10;;
20181;SDS011;10250;50.756;6.172;2023-03-04T02:22:01;20.53;;;6.40;;
20181;SDS011;10250;50.756;6.172;2023-03-04T02:24:05;22.37;;;5.87;;
20181;SDS011;10250;50.756;6.172;2023-03-04T02:26:13;17.33;;;6.03;;
20181;SDS011;10250;50.756;6.172;2023-03-04T02:28:14;23.70;;;6.43;;
20181;SDS011;10250;50.756;6.172;2023-03-04T02:30:16;20.37;;;6.53;;
20181;SDS011;10250;50.756;6.172;2023-03-04T02:32:17;22.23;;;6.43;;
20181;SDS011;10250;50.756;6.172;2023-03-04T02:34:20;20.37;;;6.13;;
20181;SDS011;10250;50.756;6.172;2023-03-04T02:36:21;22.77;;;6.10;;
20181;SDS011;10250;50.756;6.172;2023-03-04T02:38:23;19.77;;;5.40;;
20181;SDS011;10250;50.756;6.172;2023-03-04T02:40:26;20.23;;;5.40;;
20181;SDS011;10250;50.756;6.172;2023-03-04T02:42:28;18.50;;;5.20;;
20181;SDS011;10250;50.756;6.172;2023-03-04T02:44:33;18.63;;;5.37;;
20181;SDS011;10250;50.756;6.172;2023-03-04T02:46:35;19.97;;;6.30;;
20181;SDS011;10250;50.756;6.172;2023-03-04T02:48:36;22.87;;;6.10;;
20181;SDS011;10250;50.756;6.172;2023-03-04T02:50:41;24.37;;;6.93;;
20181;SDS011;10250;50.756;6.172;2023-03-04T02:52:43;18.63;;;5.27;;
20181;SDS011;10250;50.756;6.172;2023-03-04T02:54:44;19.13;;;6.53;;
20181;SDS011;10250;50.756;6.172;2023-03-04T02:56:45;22.83;;;6.03;;
20181;SDS011;10250;50.756;6.172;2023-03-04T02:58:46;17.90;;;5.30;;
20181;SDS011;10250;50.756;6.172;2023-03-04T03:00:47;20.10;;;5.97;;
20181;SDS011;10250;50.756;6.172;2023-03-04T03:02:48;19.87;;;5.87;;
20181;SDS011;10250;50.756;6.172;2023-03-04T03:04:49;20.47;;;6.13;;
20181;SDS011;10250;50.756;6.172;2023-03-04T03:06:50;21.37;;;5.70;;
20181;SDS011;10250;50.756;6.172;2023-03-04T03:08:51;21.30;;;6.13;;
20181;SDS011;10250;50.756;6.172;2023-03-04T03:10:52;17.80;;;5.27;;
20181;SDS011;10250;50.756;6.172;2023-03-04T03:12:53;22.50;;;6.17;;
20181;SDS011;10250;50.756;6.172;2023-03-04T03:14:54;22.53;;;5.17;;
20181;SDS011;10250;50.756;6.172;2023-03-04T03:16:55;23.83;;;7.60;;
20181;SDS011;10250;50.756;6.172;2023-03-04T03:18:56;20.73;;;6.40;;
20181;SDS011;10250;50.756;6.172;2023-03-04T03:20:58;22.07;;;7.07;;
20181;SDS011;10250;50.756;6.172;2023-03-04T03:22:58;18.97;;;5.67;;
20181;SDS011;10250;50.756;6.172;2023-03-04T03:24:59;21.97;;;6.43;;
20181;SDS011;10250;50.756;6.172;2023-03-04T03:27:00;22.20;;;6.63;;
20181;SDS011;10250;50.756;6.172;2023-03-04T03:29:01;26.47;;;6.50;;
20181;SDS011;10250;50.756;6.172;2023-03-04T03:31:02;22.23;;;7.57;;
20181;SDS011;10250;50.756;6.172;2023-03-04T03:33:03;19.53;;;6.57;;
20181;SDS011;10250;50.756;6.172;2023-03-04T03:35:04;22.53;;;7.33;;
20181;SDS011;10250;50.756;6.172;2023-03-04T03:37:05;21.83;;;6.93;;
20181;SDS011;10250;50.756;6.172;2023-03-04T03:39:06;21.67;;;7.17;;
20181;SDS011;10250;50.756;6.172;2023-03-04T03:41:07;18.40;;;5.63;;
20181;SDS011;10250;50.756;6.172;2023-03-04T03:43:08;19.87;;;6.27;;
20181;SDS011;10250;50.756;6.172;2023-03-04T03:45:09;22.77;;;6.77;;
20181;SDS011;10250;50.756;6.172;2023-03-04T03:47:11;22.30;;;5.70;;
20181;SDS011;10250;50.756;6.172;2023-03-04T03:49:12;20.60;;;6.47;;
20181;SDS011;10250;50.756;6.172;2023-03-04T03:51:13;25.33;;;6.57;;
20181;SDS011;10250;50.756;6.172;2023-03-04T03:53:14;17.37;;;6.53;;
20181;SDS011;10250;50.756;6.172;2023-03-04T03:55:15;23.60;;;6.33;;
20181;SDS011;10250;50.756;6.172;2023-03-04T03:57:16;21.53;;;6.23;;
20181;SDS011;10250;50.756;6.172;2023-03-04T03:59:17;18.00;;;5.57;;
20181;SDS011;10250;50.756;6.172;2023-03-04T04:01:18;20.87;;;5.97;;
20181;SDS011;10250;50.756;6.172;2023-03-04T04:03:19;21.53;;;6.23;;
20181;SDS011;10250;50.756;6.172;2023-03-04T04:05:20;24.07;;;7.53;;
20181;SDS011;10250;50.756;6.172;2023-03-04T04:07:21;19.07;;;5.37;;
20181;SDS011;10250;50.756;6.172;2023-03-04T04:09:22;21.30;;;5.63;;
20181;SDS011;10250;50.756;6.172;2023-03-04T04:11:23;20.33;;;5.50;;
20181;SDS011;10250;50.756;6.172;2023-03-04T04:13:24;18.83;;;4.97;;
20181;SDS011;10250;50.756;6.172;2023-03-04T04:15:25;21.37;;;6.47;;
20181;SDS011;10250;50.756;6.172;2023-03-04T04:17:26;22.27;;;5.77;;
20181;SDS011;10250;50.756;6.172;2023-03-04T04:19:27;19.33;;;5.60;;
20181;SDS011;10250;50.756;6.172;2023-03-04T04:21:28;24.70;;;6.33;;
20181;SDS011;10250;50.756;6.172;2023-03-04T04:23:30;18.70;;;5.50;;
20181;SDS011;10250;50.756;6.172;2023-03-04T04:25:31;16.43;;;4.93;;
20181;SDS011;10250;50.756;6.172;2023-03-04T04:27:32;16.57;;;4.63;;
20181;SDS011;10250;50.756;6.172;2023-03-04T04:29:33;16.27;;;4.60;;
20181;SDS011;10250;50.756;6.172;2023-03-04T04:31:34;22.63;;;6.07;;
20181;SDS011;10250;50.756;6.172;2023-03-04T04:33:35;15.83;;;4.23;;
20181;SDS011;10250;50.756;6.172;2023-03-04T04:35:36;19.27;;;5.33;;
20181;SDS011;10250;50.756;6.172;2023-03-04T04:37:40;16.33;;;5.27;;
20181;SDS011;10250;50.756;6.172;2023-03-04T04:39:41;17.13;;;4.37;;
20181;SDS011;10250;50.756;6.172;2023-03-04T04:41:43;23.40;;;6.13;;
20181;SDS011;10250;50.756;6.172;2023-03-04T04:43:44;18.23;;;5.43;;
20181;SDS011;10250;50.756;6.172;2023-03-04T04:45:45;18.53;;;4.77;;
20181;SDS011;10250;50.756;6.172;2023-03-04T04:47:46;20.73;;;5.30;;
20181;SDS011;10250;50.756;6.172;2023-03-04T04:49:47;22.13;;;5.60;;
20181;SDS011;10250;50.756;6.172;2023-03-04T04:51:48;17.03;;;4.23;;
20181;SDS011;10250;50.756;6.172;2023-03-04T04:53:49;17.57;;;4.87;;
20181;SDS011;10250;50.756;6.172;2023-03-04T04:55:50;17.80;;;4.20;;
20181;SDS011;10250;50.756;6.172;2023-03-04T04:57:51;23.87;;;5.13;;
20181;SDS011;10250;50.756;6.172;2023-03-04T04:59:52;16.50;;;4.73;;
20181;SDS011;10250;50.756;6.172;2023-03-04T05:01:53;16.07;;;4.60;;
20181;SDS011;10250;50.756;6.172;2023-03-04T05:03:54;12.47;;;3.47;;
20181;SDS011;10250;50.756;6.172;2023-03-04T05:05:55;12.90;;;3.30;;
20181;SDS011;10250;50.756;6.172;2023-03-04T05:07:56;17.47;;;4.50;;
20181;SDS011;10250;50.756;6.172;2023-03-04T05:09:57;16.97;;;4.20;;
20181;SDS011;10250;50.756;6.172;2023-03-04T05:11:58;12.80;;;3.63;;
20181;SDS011;10250;50.756;6.172;2023-03-04T05:13:59;18.77;;;4.50;;
20181;SDS011;10250;50.756;6.172;2023-03-04T05:16:01;15.23;;;4.10;;
20181;SDS011;10250;50.756;6.172;2023-03-04T05:18:02;14.10;;;3.50;;
20181;SDS011;10250;50.756;6.172;2023-03-04T05:20:03;15.67;;;4.40;;
20181;SDS011;10250;50.756;6.172;2023-03-04T05:22:06;15.83;;;3.77;;
20181;SDS011;10250;50.756;6.172;2023-03-04T05:24:07;10.77;;;2.73;;
20181;SDS011;10250;50.756;6.172;2023-03-04T05:26:08;21.27;;;3.37;;
20181;SDS011;10250;50.756;6.172;2023-03-04T05:28:11;12.77;;;3.20;;
20181;SDS011;10250;50.756;6.172;2023-03-04T05:30:12;16.27;;;4.27;;
20181;SDS011;10250;50.756;6.172;2023-03-04T05:32:13;14.30;;;3.40;;
20181;SDS011;10250;50.756;6.172;2023-03-04T05:34:14;12.67;;;3.90;;
20181;SDS011;10250;50.756;6.172;2023-03-04T05:36:15;16.37;;;3.30;;
20181;SDS011;10250;50.756;6.172;2023-03-04T05:38:17;17.27;;;3.67;;
20181;SDS011;10250;50.756;6.172;2023-03-04T05:40:18;14.03;;;3.77;;
20181;SDS011;10250;50.756;6.172;2023-03-04T05:42:19;15.27;;;3.73;;
20181;SDS011;10250;50.756;6.172;2023-03-04T05:44:20;20.37;;;3.43;;
20181;SDS011;10250;50.756;6.172;2023-03-04T05:46:21;16.57;;;4.27;;
20181;SDS011;10250;50.756;6.172;2023-03-04T05:48:24;11.80;;;2.93;;
20181;SDS011;10250;50.756;6.172;2023-03-04T05:50:25;11.50;;;2.80;;
20181;SDS011;10250;50.756;6.172;2023-03-04T05:52:26;15.67;;;2.87;;
20181;SDS011;10250;50.756;6.172;2023-03-04T05:54:27;11.63;;;2.60;;
20181;SDS011;10250;50.756;6.172;2023-03-04T05:56:28;14.07;;;2.90;;
20181;SDS011;10250;50.756;6.172;2023-03-04T05:58:30;13.03;;;2.80;;
20181;SDS011;10250;50.756;6.172;2023-03-04T06:00:31;15.87;;;3.37;;
20181;SDS011;10250;50.756;6.172;2023-03-04T06:02:32;12.13;;;2.80;;
20181;SDS011;10250;50.756;6.172;2023-03-04T06:04:33;13.27;;;2.93;;
20181;SDS011;10250;50.756;6.172;2023-03-04T06:06:34;12.57;;;3.13;;
20181;SDS011;10250;50.756;6.172;2023-03-04T06:08:35;11.53;;;3.73;;
20181;SDS011;10250;50.756;6.172;2023-03-04T06:10:37;14.70;;;2.80;;
20181;SDS011;10250;50.756;6.172;2023-03-04T06:12:38;15.87;;;3.10;;
20181;SDS011;10250;50.756;6.172;2023-03-04T06:14:39;13.93;;;3.60;;
20181;SDS011;10250;50.756;6.172;2023-03-04T06:16:40;15.00;;;2.83;;
20181;SDS011;10250;50.756;6.172;2023-03-04T06:18:41;10.33;;;2.83;;
20181;SDS011;10250;50.756;6.172;2023-03-04T06:20:42;11.10;;;2.90;;
20181;SDS011;10250;50.756;6.172;2023-03-04T06:22:44;12.07;;;2.90;;
20181;SDS011;10250;50.756;6.172;2023-03-04T06:24:45;14.77;;;3.20;;
20181;SDS011;10250;50.756;6.172;2023-03-04T06:26:46;14.47;;;3.00;;
20181;SDS011;10250;50.756;6.172;2023-03-04T06:28:47;15.70;;;3.67;;
20181;SDS011;10250;50.756;6.172;2023-03-04T06:30:52;14.87;;;4.03;;
20181;SDS011;10250;50.756;6.172;2023-03-04T06:32:53;11.90;;;3.07;;
20181;SDS011;10250;50.756;6.172;2023-03-04T06:34:54;13.10;;;3.60;;
20181;SDS011;10250;50.756;6.172;2023-03-04T06:36:55;13.40;;;2.80;;
20181;SDS011;10250;50.756;6.172;2023-03-04T06:38:56;11.60;;;3.23;;
20181;SDS011;10250;50.756;6.172;2023-03-04T06:41:04;11.40;;;2.90;;
20181;SDS011;10250;50.756;6.172;2023-03-04T06:43:05;12.13;;;2.87;;
20181;SDS011;10250;50.756;6.172;2023-03-04T06:45:06;14.40;;;3.37;;
20181;SDS011;10250;50.756;6.172;2023-03-04T06:47:08;14.80;;;3.23;;
20181;SDS011;10250;50.756;6.172;2023-03-04T06:49:08;15.37;;;3.27;;
20181;SDS011;10250;50.756;6.172;2023-03-04T06:51:12;12.10;;;3.37;;
20181;SDS011;10250;50.756;6.172;2023-03-04T06:53:13;11.43;;;3.07;;
20181;SDS011;10250;50.756;6.172;2023-03-04T06:55:14;10.90;;;2.53;;
20181;SDS011;10250;50.756;6.172;2023-03-04T06:57:15;12.57;;;2.63;;
20181;SDS011;10250;50.756;6.172;2023-03-04T06:59:16;14.27;;;2.63;;
20181;SDS011;10250;50.756;6.172;2023-03-04T07:01:18;12.70;;;2.97;;
20181;SDS011;10250;50.756;6.172;2023-03-04T07:03:20;9.50;;;2.37;;
20181;SDS011;10250;50.756;6.172;2023-03-04T07:05:21;12.13;;;2.70;;
20181;SDS011;10250;50.756;6.172;2023-03-04T07:07:22;9.90;;;2.47;;
20181;SDS011;10250;50.756;6.172;2023-03-04T07:09:25;12.93;;;2.97;;
20181;SDS011;10250;50.756;6.172;2023-03-04T07:11:26;12.60;;;2.97;;
20181;SDS011;10250;50.756;6.172;2023-03-04T07:13:26;9.97;;;2.37;;
20181;SDS011;10250;50.756;6.172;2023-03-04T07:15:28;9.87;;;2.53;;
20181;SDS011;10250;50.756;6.172;2023-03-04T07:17:28;11.57;;;2.80;;
20181;SDS011;10250;50.756;6.172;2023-03-04T07:19:29;9.93;;;2.50;;
20181;SDS011;10250;50.756;6.172;2023-03-04T07:21:31;11.93;;;2.57;;
20181;SDS011;10250;50.756;6.172;2023-03-04T07:23:32;13.33;;;3.33;;
20181;SDS011;10250;50.756;6.172;2023-03-04T07:25:33;10.40;;;2.70;;
20181;SDS011;10250;50.756;6.172;2023-03-04T07:27:34;21.33;;;4.07;;
20181;SDS011;10250;50.756;6.172;2023-03-04T07:29:37;17.33;;;3.97;;
20181;SDS011;10250;50.756;6.172;2023-03-04T07:31:38;11.40;;;3.00;;
20181;SDS011;10250;50.756;6.172;2023-03-04T07:33:39;14.43;;;2.93;;
20181;SDS011;10250;50.756;6.172;2023-03-04T07:35:40;12.33;;;2.57;;
20181;SDS011;10250;50.756;6.172;2023-03-04T07:37:41;14.73;;;2.90;;
20181;SDS011;10250;50.756;6.172;2023-03-04T07:39:42;10.50;;;2.93;;
20181;SDS011;10250;50.756;6.172;2023-03-04T07:41:43;13.03;;;3.03;;
20181;SDS011;10250;50.756;6.172;2023-03-04T07:43:44;13.10;;;3.00;;
20181;SDS011;10250;50.756;6.172;2023-03-04T07:45:45;16.90;;;3.23;;
20181;SDS011;10250;50.756;6.172;2023-03-04T07:47:46;6.20;;;1.73;;
20181;SDS011;10250;50.756;6.172;2023-03-04T07:49:47;10.20;;;2.63;;
20181;SDS011;10250;50.756;6.172;2023-03-04T07:51:48;9.47;;;2.67;;
20181;SDS011;10250;50.756;6.172;2023-03-04T07:53:50;11.13;;;2.70;;
20181;SDS011;10250;50.756;6.172;2023-03-04T07:55:51;8.13;;;2.30;;
20181;SDS011;10250;50.756;6.172;2023-03-04T07:57:52;9.47;;;2.33;;
20181;SDS011;10250;50.756;6.172;2023-03-04T07:59:53;10.80;;;2.33;;
20181;SDS011;10250;50.756;6.172;2023-03-04T08:01:55;11.67;;;2.87;;
20181;SDS011;10250;50.756;6.172;2023-03-04T08:03:56;9.10;;;2.23;;
20181;SDS011;10250;50.756;6.172;2023-03-04T08:05:57;7.73;;;2.13;;
20181;SDS011;10250;50.756;6.172;2023-03-04T08:07:58;12.67;;;2.30;;
20181;SDS011;10250;50.756;6.172;2023-03-04T08:09:59;7.00;;;2.00;;
20181;SDS011;10250;50.756;6.172;2023-03-04T08:12:00;11.87;;;2.33;;
20181;SDS011;10250;50.756;6.172;2023-03-04T08:14:01;12.27;;;2.27;;
20181;SDS011;10250;50.756;6.172;2023-03-04T08:16:02;6.07;;;1.83;;
20181;SDS011;10250;50.756;6.172;2023-03-04T08:18:04;10.63;;;2.30;;
20181;SDS011;10250;50.756;6.172;2023-03-04T08:20:05;10.30;;;2.10;;
20181;SDS011;10250;50.756;6.172;2023-03-04T08:22:06;5.37;;;1.80;;
20181;SDS011;10250;50.756;6.172;2023-03-04T08:24:07;7.07;;;1.73;;
20181;SDS011;10250;50.756;6.172;2023-03-04T08:26:20;11.67;;;2.60;;
20181;SDS011;10250;50.756;6.172;2023-03-04T08:28:21;7.60;;;1.83;;
20181;SDS011;10250;50.756;6.172;2023-03-04T08:30:22;6.70;;;2.03;;
20181;SDS011;10250;50.756;6.172;2023-03-04T08:32:23;6.13;;;1.63;;
20181;SDS011;10250;50.756;6.172;2023-03-04T08:34:25;9.97;;;2.07;;
20181;SDS011;10250;50.756;6.172;2023-03-04T08:36:27;7.87;;;1.77;;
20181;SDS011;10250;50.756;6.172;2023-03-04T08:38:28;8.23;;;1.60;;
20181;SDS011;10250;50.756;6.172;2023-03-04T08:40:30;11.87;;;2.50;;
20181;SDS011;10250;50.756;6.172;2023-03-04T08:42:31;7.43;;;1.70;;
20181;SDS011;10250;50.756;6.172;2023-03-04T08:44:33;6.77;;;2.17;;
20181;SDS011;10250;50.756;6.172;2023-03-04T08:46:33;12.17;;;2.03;;
20181;SDS011;10250;50.756;6.172;2023-03-04T08:48:35;9.03;;;1.50;;
20181;SDS011;10250;50.756;6.172;2023-03-04T08:50:36;9.30;;;2.03;;
20181;SDS011;10250;50.756;6.172;2023-03-04T08:52:37;7.13;;;1.70;;
20181;SDS011;10250;50.756;6.172;2023-03-04T08:54:38;4.97;;;1.60;;
20181;SDS011;10250;50.756;6.172;2023-03-04T08:56:40;9.23;;;1.80;;
20181;SDS011;10250;50.756;6.172;2023-03-04T08:58:41;8.60;;;1.30;;
20181;SDS011;10250;50.756;6.172;2023-03-04T09:02:45;12.57;;;2.03;;
20181;SDS011;10250;50.756;6.172;2023-03-04T09:04:46;6.30;;;1.37;;
20181;SDS011;10250;50.756;6.172;2023-03-04T09:06:47;3.07;;;1.10;;
20181;SDS011;10250;50.756;6.172;2023-03-04T09:08:48;3.97;;;1.30;;
20181;SDS011;10250;50.756;6.172;2023-03-04T09:10:50;4.37;;;1.27;;
20181;SDS011;10250;50.756;6.172;2023-03-04T09:12:52;5.67;;;1.57;;
20181;SDS011;10250;50.756;6.172;2023-03-04T09:14:53;7.97;;;1.53;;
20181;SDS011;10250;50.756;6.172;2023-03-04T09:16:54;5.30;;;1.70;;
20181;SDS011;10250;50.756;6.172;2023-03-04T09:18:55;7.30;;;1.53;;
20181;SDS011;10250;50.756;6.172;2023-03-04T09:20:56;6.37;;;1.47;;
20181;SDS011;10250;50.756;6.172;2023-03-04T09:22:57;5.60;;;1.10;;
20181;SDS011;10250;50.756;6.172;2023-03-04T09:24:58;4.97;;;1.33;;
20181;SDS011;10250;50.756;6.172;2023-03-04T09:26:59;3.37;;;0.97;;
20181;SDS011;10250;50.756;6.172;2023-03-04T09:29:00;5.53;;;1.23;;
20181;SDS011;10250;50.756;6.172;2023-03-04T09:31:01;6.43;;;1.67;;
20181;SDS011;10250;50.756;6.172;2023-03-04T09:33:02;4.33;;;1.13;;
20181;SDS011;10250;50.756;6.172;2023-03-04T09:35:03;3.23;;;0.97;;
20181;SDS011;10250;50.756;6.172;2023-03-04T09:37:04;4.00;;;1.37;;
20181;SDS011;10250;50.756;6.172;2023-03-04T09:39:05;4.93;;;1.23;;
20181;SDS011;10250;50.756;6.172;2023-03-04T09:41:08;6.03;;;1.13;;
20181;SDS011;10250;50.756;6.172;2023-03-04T09:45:21;5.40;;;1.10;;
20181;SDS011;10250;50.756;6.172;2023-03-04T09:47:23;1.30;;;0.87;;
20181;SDS011;10250;50.756;6.172;2023-03-04T09:49:25;9.03;;;1.60;;
20181;SDS011;10250;50.756;6.172;2023-03-04T09:53:39;3.20;;;1.03;;
20181;SDS011;10250;50.756;6.172;2023-03-04T09:55:43;2.63;;;0.90;;
20181;SDS011;10250;50.756;6.172;2023-03-04T09:57:50;5.33;;;0.80;;
20181;SDS011;10250;50.756;6.172;2023-03-04T10:02:12;5.10;;;1.23;;
20181;SDS011;10250;50.756;6.172;2023-03-04T10:06:37;3.00;;;1.10;;
20181;SDS011;10250;50.756;6.172;2023-03-04T10:10:46;2.37;;;0.73;;
20181;SDS011;10250;50.756;6.172;2023-03-04T10:12:48;2.83;;;0.90;;
20181;SDS011;10250;50.756;6.172;2023-03-04T10:14:57;6.63;;;1.73;;
20181;SDS011;10250;50.756;6.172;2023-03-04T10:17:09;5.70;;;1.07;;
20181;SDS011;10250;50.756;6.172;2023-03-04T10:21:25;3.23;;;0.93;;
20181;SDS011;10250;50.756;6.172;2023-03-04T10:23:30;3.20;;;0.80;;
20181;SDS011;10250;50.756;6.172;2023-03-04T10:25:32;4.07;;;0.73;;
20181;SDS011;10250;50.756;6.172;2023-03-04T10:27:33;4.17;;;0.87;;
20181;SDS011;10250;50.756;6.172;2023-03-04T10:29:34;3.03;;;0.73;;
20181;SDS011;10250;50.756;6.172;2023-03-04T10:31:36;1.53;;;0.80;;
20181;SDS011;10250;50.756;6.172;2023-03-04T10:33:37;1.90;;;0.80;;
20181;SDS011;10250;50.756;6.172;2023-03-04T10:35:39;5.90;;;1.00;;
20181;SDS011;10250;50.756;6.172;2023-03-04T10:37:48;3.87;;;0.97;;
20181;SDS011;10250;50.756;6.172;2023-03-04T10:39:49;3.93;;;1.43;;
20181;SDS011;10250;50.756;6.172;2023-03-04T10:41:54;4.90;;;1.40;;
20181;SDS011;10250;50.756;6.172;2023-03-04T10:46:05;2.13;;;0.90;;
20181;SDS011;10250;50.756;6.172;2023-03-04T10:48:07;5.97;;;1.23;;
20181;SDS011;10250;50.756;6.172;2023-03-04T10:50:27;2.97;;;0.90;;
20181;SDS011;10250;50.756;6.172;2023-03-04T10:56:40;8.33;;;1.23;;
20181;SDS011;10250;50.756;6.172;2023-03-04T10:58:45;4.70;;;1.10;;
20181;SDS011;10250;50.756;6.172;2023-03-04T11:00:57;2.73;;;0.87;;
20181;SDS011;10250;50.756;6.172;2023-03-04T11:05:22;5.00;;;1.43;;
20181;SDS011;10250;50.756;6.172;2023-03-04T11:07:24;3.20;;;0.90;;
20181;SDS011;10250;50.756;6.172;2023-03-04T11:09:27;1.90;;;0.73;;
20181;SDS011;10250;50.756;6.172;2023-03-04T11:11:38;5.97;;;1.10;;
20181;SDS011;10250;50.756;6.172;2023-03-04T11:13:49;3.03;;;0.73;;
20181;SDS011;10250;50.756;6.172;2023-03-04T11:17:59;2.10;;;0.60;;
20181;SDS011;10250;50.756;6.172;2023-03-04T11:22:02;2.67;;;0.77;;
20181;SDS011;10250;50.756;6.172;2023-03-04T11:24:11;3.40;;;1.20;;
20181;SDS011;10250;50.756;6.172;2023-03-04T11:26:15;3.33;;;0.93;;
20181;SDS011;10250;50.756;6.172;2023-03-04T11:28:21;4.50;;;1.30;;
20181;SDS011;10250;50.756;6.172;2023-03-04T11:32:37;4.33;;;1.27;;
20181;SDS011;10250;50.756;6.172;2023-03-04T11:34:48;1.57;;;0.77;;
20181;SDS011;10250;50.756;6.172;2023-03-04T11:38:56;4.40;;;1.00;;
20181;SDS011;10250;50.756;6.172;2023-03-04T11:40:58;4.23;;;1.00;;
20181;SDS011;10250;50.756;6.172;2023-03-04T11:43:42;2.97;;;0.80;;
20181;SDS011;10250;50.756;6.172;2023-03-04T11:45:26;3.63;;;1.30;;
20181;SDS011;10250;50.756;6.172;2023-03-04T11:47:43;4.47;;;1.20;;
20181;SDS011;10250;50.756;6.172;2023-03-04T11:54:39;4.43;;;0.73;;
20181;SDS011;10250;50.756;6.172;2023-03-04T11:56:44;4.23;;;0.90;;
20181;SDS011;10250;50.756;6.172;2023-03-04T12:05:16;5.07;;;0.80;;
20181;SDS011;10250;50.756;6.172;2023-03-04T12:10:32;3.30;;;0.90;;
20181;SDS011;10250;50.756;6.172;2023-03-04T12:14:18;3.10;;;0.70;;
20181;SDS011;10250;50.756;6.172;2023-03-04T12:16:26;2.60;;;0.83;;
20181;SDS011;10250;50.756;6.172;2023-03-04T12:27:23;1.60;;;0.60;;
20181;SDS011;10250;50.756;6.172;2023-03-04T12:29:36;3.00;;;0.60;;
20181;SDS011;10250;50.756;6.172;2023-03-04T12:31:41;2.43;;;0.80;;
20181;SDS011;10250;50.756;6.172;2023-03-04T12:44:23;3.00;;;0.63;;
20181;SDS011;10250;50.756;6.172;2023-03-04T12:55:10;3.77;;;1.00;;
20181;SDS011;10250;50.756;6.172;2023-03-04T12:57:13;3.63;;;1.20;;
20181;SDS011;10250;50.756;6.172;2023-03-04T12:59:18;3.27;;;0.93;;
20181;SDS011;10250;50.756;6.172;2023-03-04T13:10:17;3.80;;;1.07;;
20181;SDS011;10250;50.756;6.172;2023-03-04T13:12:20;2.57;;;0.70;;
20181;SDS011;10250;50.756;6.172;2023-03-04T13:14:22;1.03;;;0.63;;
20181;SDS011;10250;50.756;6.172;2023-03-04T13:16:35;3.40;;;0.97;;
20181;SDS011;10250;50.756;6.172;2023-03-04T13:18:39;1.20;;;0.60;;
20181;SDS011;10250;50.756;6.172;2023-03-04T13:20:40;2.10;;;0.77;;
20181;SDS011;10250;50.756;6.172;2023-03-04T13:22:52;8.00;;;1.10;;
20181;SDS011;10250;50.756;6.172;2023-03-04T13:24:55;2.27;;;0.70;;
20181;SDS011;10250;50.756;6.172;2023-03-04T13:26:56;2.63;;;0.70;;
20181;SDS011;10250;50.756;6.172;2023-03-04T13:29:42;2.83;;;0.90;;
20181;SDS011;10250;50.756;6.172;2023-03-04T13:31:22;3.23;;;0.90;;
20181;SDS011;10250;50.756;6.172;2023-03-04T13:37:57;2.50;;;0.90;;
20181;SDS011;10250;50.756;6.172;2023-03-04T13:46:45;4.03;;;1.13;;